createdAt,value
2022-11-17T00:00:43.049Z,5.53
2022-11-17T00:03:15.836Z,7.00
2022-11-17T00:05:43.957Z,7.20
2022-11-17T00:08:10.856Z,6.97
2022-11-17T00:10:37.745Z,17.90
2022-11-17T00:13:23.429Z,6.47
2022-11-17T00:15:50.357Z,7.53
2022-11-17T00:18:35.787Z,5.03
2022-11-17T00:21:19.551Z,6.53
2022-11-17T00:23:50.072Z,7.10
2022-11-17T00:27:04.958Z,5.50
2022-11-17T00:29:32.726Z,18.07
2022-11-17T00:32:18.317Z,4.90
2022-11-17T00:34:45.258Z,8.03
2022-11-17T00:37:13.498Z,6.00
2022-11-17T00:39:40.713Z,13.57
2022-11-17T00:42:07.674Z,4.67
2022-11-17T00:44:34.617Z,16.40
2022-11-17T00:47:01.678Z,6.80
2022-11-17T00:49:28.640Z,10.10
2022-11-17T00:51:56.441Z,4.33
2022-11-17T00:54:23.617Z,8.07
2022-11-17T00:56:50.581Z,4.53
2022-11-17T00:59:17.724Z,4.43
2022-11-17T01:01:45.507Z,13.93
2022-11-17T01:04:15.885Z,6.63
2022-11-17T01:06:49.201Z,18.10
2022-11-17T01:09:22.644Z,4.10
2022-11-17T01:11:52.673Z,5.20
2022-11-17T01:14:26.228Z,3.67
2022-11-17T01:16:54.480Z,5.50
2022-11-17T01:19:23.434Z,6.63
2022-11-17T01:21:50.423Z,2.93
2022-11-17T01:24:17.900Z,5.67
2022-11-17T01:26:46.233Z,17.87
2022-11-17T01:29:17.111Z,4.67
2022-11-17T01:31:45.671Z,13.37
2022-11-17T01:34:12.886Z,8.90
2022-11-17T01:37:01.863Z,17.57
2022-11-17T01:39:30.502Z,3.40
2022-11-17T01:41:57.946Z,6.50
2022-11-17T01:45:10.029Z,10.40
2022-11-17T01:47:56.166Z,17.77
2022-11-17T01:50:37.546Z,6.70
2022-11-17T01:53:11.515Z,4.70
2022-11-17T01:55:46.603Z,14.23
2022-11-17T01:58:19.444Z,7.73
2022-11-17T02:00:47.198Z,15.90
2022-11-17T02:03:14.303Z,5.77
2022-11-17T02:06:02.094Z,11.33
2022-11-17T02:08:32.895Z,7.57
2022-11-17T02:11:03.294Z,5.13
2022-11-17T02:13:30.510Z,7.97
2022-11-17T02:15:57.431Z,5.07
2022-11-17T02:18:24.663Z,3.80
2022-11-17T02:21:08.542Z,13.30
2022-11-17T02:24:12.889Z,4.97
2022-11-17T02:27:16.204Z,13.40
2022-11-17T02:29:54.175Z,17.53
2022-11-17T02:32:54.860Z,5.17
2022-11-17T02:35:50.360Z,5.13
2022-11-17T02:38:54.490Z,5.13
2022-11-17T02:41:32.906Z,5.30
2022-11-17T02:44:10.793Z,8.33
2022-11-17T02:47:04.440Z,5.73
2022-11-17T02:49:48.334Z,5.33
2022-11-17T02:52:16.433Z,3.47
2022-11-17T02:54:43.415Z,12.43
2022-11-17T02:57:33.175Z,5.60
2022-11-17T03:00:09.913Z,7.57
2022-11-17T03:02:47.254Z,5.63
2022-11-17T03:05:33.145Z,7.27
2022-11-17T03:08:39.566Z,9.03
2022-11-17T03:11:09.000Z,5.53
2022-11-17T03:13:54.329Z,5.77
2022-11-17T03:16:51.532Z,7.10
2022-11-17T03:19:44.966Z,6.03
2022-11-17T03:22:24.249Z,6.03
2022-11-17T03:24:56.254Z,13.67
2022-11-17T03:27:35.367Z,7.60
2022-11-17T03:30:08.892Z,11.13
2022-11-17T03:32:40.283Z,6.77
2022-11-17T03:35:11.580Z,5.67
2022-11-17T03:37:44.694Z,3.70
2022-11-17T03:40:16.550Z,8.63
2022-11-17T03:42:52.685Z,4.83
2022-11-17T03:45:25.880Z,4.67
2022-11-17T03:48:29.341Z,16.60
2022-11-17T03:51:17.953Z,13.80
2022-11-17T03:53:45.975Z,4.30
2022-11-17T03:56:35.903Z,6.33
2022-11-17T03:59:21.281Z,13.70
2022-11-17T04:01:48.232Z,7.63
2022-11-17T04:04:19.799Z,6.33
2022-11-17T04:06:47.806Z,7.50
2022-11-17T04:09:17.594Z,5.30
2022-11-17T04:12:05.161Z,7.13
2022-11-17T04:14:50.462Z,5.90
2022-11-17T04:17:17.460Z,4.43
2022-11-17T04:19:44.335Z,4.73
2022-11-17T04:22:11.254Z,4.13
2022-11-17T04:24:38.167Z,6.17
2022-11-17T04:27:37.108Z,15.43
2022-11-17T04:30:04.815Z,16.37
2022-11-17T04:32:31.717Z,4.67
2022-11-17T04:34:58.603Z,13.23
2022-11-17T04:37:25.492Z,5.37
2022-11-17T04:39:52.370Z,6.43
2022-11-17T04:42:19.283Z,4.93
2022-11-17T04:44:46.161Z,6.47
2022-11-17T04:47:13.045Z,6.33
2022-11-17T04:49:39.916Z,5.37
2022-11-17T04:52:06.880Z,17.07
2022-11-17T04:54:33.808Z,3.43
2022-11-17T04:57:00.737Z,15.07
2022-11-17T04:59:27.635Z,7.57
2022-11-17T05:01:54.533Z,3.83
2022-11-17T05:04:40.284Z,5.27
2022-11-17T05:07:09.090Z,17.33
2022-11-17T05:09:36.417Z,3.83
2022-11-17T05:12:22.364Z,11.43
2022-11-17T05:14:50.444Z,5.50
2022-11-17T05:17:17.934Z,4.47
2022-11-17T05:19:47.191Z,4.43
2022-11-17T05:22:41.018Z,20.07
2022-11-17T05:25:09.365Z,16.57
2022-11-17T05:27:36.660Z,5.97
2022-11-17T05:30:06.871Z,14.70
2022-11-17T05:32:33.879Z,3.33
2022-11-17T05:35:00.805Z,8.67
2022-11-17T05:37:27.695Z,9.10
2022-11-17T05:39:54.578Z,3.30
2022-11-17T05:42:21.467Z,5.13
2022-11-17T05:44:48.786Z,8.83
2022-11-17T05:47:15.812Z,19.17
2022-11-17T05:49:42.755Z,4.20
2022-11-17T05:52:09.703Z,15.23
2022-11-17T05:54:36.611Z,5.93
2022-11-17T05:57:09.541Z,9.50
2022-11-17T05:59:46.024Z,6.80
2022-11-17T06:02:26.309Z,15.60
2022-11-17T06:04:53.324Z,3.00
2022-11-17T06:07:20.380Z,12.17
2022-11-17T06:09:47.779Z,5.03
2022-11-17T06:12:15.413Z,14.77
2022-11-17T06:14:42.762Z,4.90
2022-11-17T06:17:23.075Z,14.47
2022-11-17T06:20:03.144Z,7.50
2022-11-17T06:22:30.972Z,4.47
2022-11-17T06:24:58.810Z,7.43
2022-11-17T06:27:26.704Z,5.40
2022-11-17T06:29:55.284Z,6.07
2022-11-17T06:32:22.460Z,15.57
2022-11-17T06:34:55.191Z,10.30
2022-11-17T06:37:24.589Z,14.67
2022-11-17T06:39:51.603Z,4.77
2022-11-17T06:42:18.672Z,15.03
2022-11-17T06:44:45.577Z,6.87
2022-11-17T06:47:12.505Z,14.10
2022-11-17T06:49:39.406Z,7.37
2022-11-17T06:52:06.283Z,12.03
2022-11-17T06:54:33.224Z,4.73
2022-11-17T06:57:00.360Z,4.77
2022-11-17T06:59:27.345Z,8.40
2022-11-17T07:01:54.323Z,8.80
2022-11-17T07:04:21.236Z,12.57
2022-11-17T07:06:48.198Z,6.87
2022-11-17T07:09:15.174Z,12.83
2022-11-17T07:11:42.099Z,9.57
2022-11-17T07:14:09.120Z,4.27
2022-11-17T07:16:36.045Z,3.70
2022-11-17T07:19:03.776Z,4.37
2022-11-17T07:21:31.251Z,7.77
2022-11-17T07:23:58.266Z,4.80
2022-11-17T07:26:25.240Z,17.43
2022-11-17T07:28:52.185Z,7.57
2022-11-17T07:31:19.121Z,17.07
2022-11-17T07:33:46.095Z,4.70
2022-11-17T07:36:15.320Z,7.33
2022-11-17T07:38:42.753Z,15.77
2022-11-17T07:41:13.186Z,17.70
2022-11-17T07:43:40.365Z,8.60
2022-11-17T07:46:12.164Z,6.07
2022-11-17T07:48:39.894Z,12.57
2022-11-17T07:51:07.175Z,6.37
2022-11-17T07:53:35.187Z,14.43
2022-11-17T07:56:08.439Z,22.70
2022-11-17T07:58:36.215Z,20.73
2022-11-17T08:01:08.819Z,13.17
2022-11-17T08:03:36.177Z,7.50
2022-11-17T08:06:05.703Z,8.43
2022-11-17T08:08:33.504Z,16.50
2022-11-17T08:11:10.717Z,7.03
2022-11-17T08:13:39.624Z,8.73
2022-11-17T08:16:08.341Z,6.20
2022-11-17T08:18:36.143Z,14.77
2022-11-17T08:21:07.783Z,11.27
2022-11-17T08:23:35.554Z,14.23
2022-11-17T08:26:03.642Z,8.40
2022-11-17T08:28:30.893Z,20.93
2022-11-17T08:31:01.091Z,8.57
2022-11-17T08:33:28.717Z,16.77
2022-11-17T08:36:00.078Z,6.93
2022-11-17T08:38:30.239Z,22.57
2022-11-17T08:40:59.183Z,19.00
2022-11-17T08:43:26.099Z,31.37
2022-11-17T08:45:53.038Z,18.47
2022-11-17T08:48:20.304Z,12.17
2022-11-17T08:50:48.146Z,19.67
2022-11-17T08:53:18.141Z,16.50
2022-11-17T08:55:45.658Z,20.87
2022-11-17T08:58:13.043Z,25.70
2022-11-17T09:00:41.171Z,18.23
2022-11-17T09:03:10.144Z,27.13
2022-11-17T09:05:40.992Z,20.17
2022-11-17T09:08:38.023Z,17.43
2022-11-17T09:10:55.565Z,15.57
2022-11-17T09:13:22.649Z,14.07
2022-11-17T09:15:49.545Z,9.87
2022-11-17T09:18:16.537Z,12.03
2022-11-17T09:20:45.792Z,17.27
2022-11-17T09:23:13.320Z,12.03
2022-11-17T09:25:40.234Z,11.30
2022-11-17T09:28:07.139Z,13.17
2022-11-17T09:30:34.089Z,13.10
2022-11-17T09:33:01.091Z,9.83
2022-11-17T09:35:28.011Z,11.50
2022-11-17T09:38:00.737Z,16.00
2022-11-17T09:40:33.190Z,21.30
2022-11-17T09:43:26.781Z,12.20
2022-11-17T09:46:07.495Z,11.77
2022-11-17T09:48:49.950Z,9.37
2022-11-17T09:51:21.489Z,9.50
2022-11-17T09:53:57.769Z,10.90
2022-11-17T09:56:27.337Z,15.70
2022-11-17T09:58:59.038Z,11.60
2022-11-17T10:01:29.289Z,9.73
2022-11-17T10:03:59.182Z,12.43
2022-11-17T10:06:29.479Z,12.83
2022-11-17T10:09:35.574Z,10.77
2022-11-17T10:12:26.951Z,11.87
2022-11-17T10:14:55.506Z,9.23
2022-11-17T10:17:22.525Z,11.57
2022-11-17T10:19:49.481Z,13.00
2022-11-17T10:22:37.045Z,14.97
2022-11-17T10:25:04.486Z,13.13
2022-11-17T10:27:34.176Z,14.13
2022-11-17T10:30:07.268Z,20.17
2022-11-17T10:32:48.454Z,19.17
2022-11-17T10:35:25.217Z,21.40
2022-11-17T10:38:03.295Z,18.77
2022-11-17T10:40:34.060Z,20.20
2022-11-17T10:43:24.374Z,20.97
2022-11-17T10:45:59.223Z,16.70
2022-11-17T10:48:31.716Z,21.40
2022-11-17T10:51:03.315Z,16.57
2022-11-17T10:53:43.495Z,14.30
2022-11-17T10:56:21.501Z,17.70
2022-11-17T10:59:10.058Z,15.43
2022-11-17T11:01:42.029Z,17.83
2022-11-17T11:04:41.186Z,23.37
2022-11-17T11:07:22.186Z,15.43
2022-11-17T11:10:27.992Z,16.33
2022-11-17T11:13:16.435Z,9.27
2022-11-17T11:15:45.599Z,12.47
2022-11-17T11:18:18.756Z,17.93
2022-11-17T11:21:34.665Z,16.67
2022-11-17T11:24:40.881Z,18.97
2022-11-17T11:27:42.289Z,15.60
2022-11-17T11:30:16.903Z,16.50
2022-11-17T11:33:04.381Z,19.90
2022-11-17T11:35:46.239Z,12.37
2022-11-17T11:38:50.468Z,15.40
2022-11-17T11:41:43.383Z,17.63
2022-11-17T11:44:54.896Z,15.67
2022-11-17T11:47:57.416Z,16.23
2022-11-17T11:51:11.771Z,20.27
2022-11-17T11:53:52.905Z,18.33
2022-11-17T11:56:39.476Z,21.37
2022-11-17T11:59:37.788Z,15.17
2022-11-17T12:02:31.001Z,19.87
2022-11-17T12:05:22.094Z,20.10
2022-11-17T12:08:14.051Z,15.27
2022-11-17T12:10:54.860Z,20.93
2022-11-17T12:13:24.085Z,16.80
2022-11-17T12:15:51.285Z,18.20
2022-11-17T12:18:18.091Z,17.80
2022-11-17T12:20:55.293Z,16.07
2022-11-17T12:23:54.048Z,14.43
2022-11-17T12:26:30.347Z,30.57
2022-11-17T12:29:22.237Z,29.00
2022-11-17T12:31:51.382Z,20.70
2022-11-17T12:34:31.387Z,19.73
2022-11-17T12:37:19.279Z,14.83
2022-11-17T12:40:03.810Z,18.20
2022-11-17T12:42:33.379Z,10.43
2022-11-17T12:45:03.227Z,13.03
2022-11-17T12:47:40.099Z,13.67
2022-11-17T12:50:22.067Z,14.37
2022-11-17T12:53:19.959Z,17.87
2022-11-17T12:56:20.271Z,12.73
2022-11-17T12:59:03.806Z,13.23
2022-11-17T13:01:50.462Z,19.37
2022-11-17T13:04:35.576Z,12.40
2022-11-17T13:07:22.666Z,16.47
2022-11-17T13:09:58.571Z,14.23
2022-11-17T13:12:30.022Z,14.47
2022-11-17T13:14:59.639Z,14.17
2022-11-17T13:17:31.366Z,16.73
2022-11-17T13:20:05.123Z,13.30
2022-11-17T13:22:32.380Z,13.07
2022-11-17T13:25:19.507Z,14.80
2022-11-17T13:27:51.095Z,13.83
2022-11-17T13:30:28.412Z,13.53
2022-11-17T13:32:56.756Z,17.67
2022-11-17T13:35:33.812Z,21.03
2022-11-17T13:38:22.432Z,26.37
2022-11-17T13:40:51.988Z,29.40
2022-11-17T13:43:21.643Z,21.27
2022-11-17T13:45:50.650Z,39.80
2022-11-17T13:48:41.344Z,55.97
2022-11-17T13:51:20.400Z,37.93
2022-11-17T13:54:16.130Z,30.63
2022-11-17T13:56:55.355Z,32.50
2022-11-17T13:59:37.527Z,29.83
2022-11-17T14:02:16.513Z,35.07
2022-11-17T14:05:09.467Z,25.07
2022-11-17T14:07:38.765Z,24.87
2022-11-17T14:10:21.792Z,16.53
2022-11-17T14:13:02.006Z,19.67
2022-11-17T14:15:36.877Z,16.20
2022-11-17T14:18:37.298Z,20.13
2022-11-17T14:21:12.461Z,16.10
2022-11-17T14:23:40.187Z,18.37
2022-11-17T14:26:22.581Z,16.67
2022-11-17T14:28:50.989Z,17.37
2022-11-17T14:31:18.731Z,17.87
2022-11-17T14:33:45.873Z,14.13
2022-11-17T14:36:17.463Z,14.70
2022-11-17T14:38:45.770Z,20.70
2022-11-17T14:41:16.126Z,18.47
2022-11-17T14:43:43.398Z,23.03
2022-11-17T14:46:23.528Z,19.33
2022-11-17T14:48:51.483Z,33.77
2022-11-17T14:51:20.002Z,50.97
2022-11-17T14:53:47.936Z,40.20
2022-11-17T14:56:18.461Z,29.70
2022-11-17T14:58:46.795Z,23.40
2022-11-17T15:01:25.357Z,27.17
2022-11-17T15:03:53.320Z,29.43
2022-11-17T15:06:20.632Z,26.33
2022-11-17T15:08:54.195Z,32.50
2022-11-17T15:11:21.122Z,28.57
2022-11-17T15:13:48.066Z,24.83
2022-11-17T15:16:14.993Z,21.97
2022-11-17T15:18:48.136Z,21.63
2022-11-17T15:21:16.690Z,29.90
2022-11-17T15:23:44.479Z,30.40
2022-11-17T15:26:15.685Z,30.17
2022-11-17T15:28:43.425Z,26.87
2022-11-17T15:31:16.706Z,26.33
2022-11-17T15:33:46.433Z,24.13
2022-11-17T15:36:17.159Z,26.40
2022-11-17T15:38:45.179Z,29.67
2022-11-17T15:41:13.415Z,37.20
2022-11-17T15:43:43.096Z,47.60
2022-11-17T15:46:17.341Z,49.50
2022-11-17T15:48:47.588Z,67.33
2022-11-17T15:51:17.353Z,67.17
2022-11-17T15:53:46.551Z,60.17
2022-11-17T15:56:18.837Z,55.37
2022-11-17T15:58:46.981Z,52.90
2022-11-17T16:01:16.305Z,47.87
2022-11-17T16:03:45.210Z,37.93
2022-11-17T16:06:12.998Z,37.10
2022-11-17T16:08:40.082Z,43.97
2022-11-17T16:11:37.383Z,57.23
2022-11-17T16:14:04.976Z,63.30
2022-11-17T16:16:35.557Z,63.00
2022-11-17T16:19:03.534Z,65.07
2022-11-17T16:21:30.721Z,72.53
2022-11-17T16:24:00.555Z,84.93
2022-11-17T16:26:29.155Z,103.60
2022-11-17T16:29:05.676Z,150.47
2022-11-17T16:31:35.434Z,158.80
2022-11-17T16:34:10.304Z,129.17
2022-11-17T16:36:39.946Z,102.83
2022-11-17T16:39:12.994Z,92.10
2022-11-17T16:41:43.118Z,75.30
2022-11-17T16:44:17.123Z,63.27
2022-11-17T16:46:47.129Z,65.27
2022-11-17T16:49:16.975Z,49.97
2022-11-17T16:51:53.783Z,48.20
2022-11-17T16:54:21.270Z,43.07
2022-11-17T16:56:48.238Z,43.97
2022-11-17T16:59:15.800Z,45.43
2022-11-17T17:01:43.055Z,57.40
2022-11-17T17:04:12.283Z,48.03
2022-11-17T17:06:41.763Z,49.47
2022-11-17T17:09:11.020Z,51.23
2022-11-17T17:11:38.474Z,62.30
2022-11-17T17:14:08.628Z,66.30
2022-11-17T17:16:37.861Z,70.30
2022-11-17T17:19:07.463Z,68.30
2022-11-17T17:21:36.018Z,53.60
2022-11-17T17:24:03.705Z,44.87
2022-11-17T17:26:32.719Z,34.13
2022-11-17T17:29:01.251Z,30.30
2022-11-17T17:31:34.585Z,25.80
2022-11-17T17:34:01.688Z,25.77
2022-11-17T17:36:29.120Z,28.47
2022-11-17T17:38:58.794Z,25.73
2022-11-17T17:41:29.276Z,31.00
2022-11-17T17:44:02.665Z,25.53
2022-11-17T17:46:31.209Z,41.43
2022-11-17T17:48:58.590Z,42.47
2022-11-17T17:51:28.301Z,42.33
2022-11-17T17:53:58.325Z,53.80
2022-11-17T17:56:25.681Z,50.77
2022-11-17T17:58:55.524Z,54.60
2022-11-17T18:01:37.347Z,47.30
2022-11-17T18:04:05.337Z,52.13
2022-11-17T18:06:37.985Z,51.97
2022-11-17T18:09:07.341Z,51.40
2022-11-17T18:11:35.600Z,46.37
2022-11-17T18:14:03.094Z,50.40
2022-11-17T18:16:32.648Z,48.87
2022-11-17T18:19:06.254Z,47.27
2022-11-17T18:21:33.590Z,54.03
2022-11-17T18:24:02.280Z,52.60
2022-11-17T18:26:32.650Z,52.87
2022-11-17T18:29:15.103Z,47.93
2022-11-17T18:31:42.945Z,38.53
2022-11-17T18:34:22.533Z,35.17
2022-11-17T18:36:51.312Z,27.93
2022-11-17T18:39:18.654Z,28.67
2022-11-17T18:41:45.921Z,31.33
2022-11-17T18:44:18.517Z,30.07
2022-11-17T18:46:46.224Z,32.67
2022-11-17T18:49:13.213Z,34.70
2022-11-17T18:51:40.207Z,37.90
2022-11-17T18:54:07.913Z,32.80
2022-11-17T18:56:37.094Z,39.13
2022-11-17T18:59:12.036Z,40.23
2022-11-17T19:01:42.285Z,36.23
2022-11-17T19:04:12.016Z,31.37
2022-11-17T19:06:38.901Z,39.93
2022-11-17T19:09:06.170Z,33.57
2022-11-17T19:11:34.553Z,36.60
2022-11-17T19:14:02.768Z,42.37
2022-11-17T19:16:30.250Z,42.03
2022-11-17T19:18:58.207Z,46.70
2022-11-17T19:21:31.713Z,48.97
2022-11-17T19:24:03.465Z,51.40
2022-11-17T19:26:35.948Z,54.43
2022-11-17T19:29:16.178Z,62.77
2022-11-17T19:31:45.213Z,60.73
2022-11-17T19:34:12.377Z,66.07
2022-11-17T19:36:39.576Z,91.30
2022-11-17T19:39:06.510Z,80.10
2022-11-17T19:41:36.418Z,86.73
2022-11-17T19:44:07.594Z,80.33
2022-11-17T19:46:36.330Z,70.23
2022-11-17T19:49:05.968Z,67.80
2022-11-17T19:51:36.391Z,46.40
2022-11-17T19:54:07.077Z,41.07
2022-11-17T19:56:35.473Z,31.00
2022-11-17T19:59:03.489Z,28.53
2022-11-17T20:01:31.703Z,28.17
2022-11-17T20:04:00.772Z,46.47
2022-11-17T20:06:35.374Z,35.27
2022-11-17T20:09:10.516Z,33.70
2022-11-17T20:11:37.884Z,48.23
2022-11-17T20:14:04.847Z,41.13
2022-11-17T20:16:32.101Z,35.57
2022-11-17T20:19:02.667Z,32.13
2022-11-17T20:21:31.062Z,23.43
2022-11-17T20:23:59.286Z,27.00
2022-11-17T20:26:32.125Z,26.77
2022-11-17T20:29:00.184Z,25.20
2022-11-17T20:31:30.998Z,27.27
2022-11-17T20:34:02.042Z,27.33
2022-11-17T20:36:31.866Z,31.83
2022-11-17T20:39:02.029Z,36.83
2022-11-17T20:41:29.686Z,60.03
2022-11-17T20:43:59.078Z,43.20
2022-11-17T20:46:26.722Z,38.03
2022-11-17T20:48:54.153Z,36.83
2022-11-17T20:51:24.079Z,37.40
2022-11-17T20:53:51.700Z,38.00
2022-11-17T20:56:19.464Z,38.77
2022-11-17T20:58:46.753Z,43.27
2022-11-17T21:01:20.635Z,33.80
2022-11-17T21:03:48.368Z,34.53
2022-11-17T21:06:16.653Z,27.10
2022-11-17T21:08:45.061Z,28.73
2022-11-17T21:11:42.490Z,29.23
2022-11-17T21:14:12.036Z,33.13
2022-11-17T21:16:45.582Z,37.07
2022-11-17T21:19:14.274Z,34.93
2022-11-17T21:21:41.488Z,35.40
2022-11-17T21:24:09.386Z,35.33
2022-11-17T21:26:36.599Z,32.53
2022-11-17T21:29:06.767Z,39.13
2022-11-17T21:31:35.311Z,52.97
2022-11-17T21:34:06.470Z,40.80
2022-11-17T21:36:34.892Z,49.17
2022-11-17T21:39:02.062Z,56.83
2022-11-17T21:41:31.829Z,61.73
2022-11-17T21:44:02.131Z,66.80
2022-11-17T21:46:32.303Z,64.23
2022-11-17T21:49:00.506Z,36.43
2022-11-17T21:51:34.397Z,33.40
2022-11-17T21:54:04.417Z,28.27
2022-11-17T21:56:32.249Z,23.43
2022-11-17T21:59:06.068Z,22.37
2022-11-17T22:01:34.896Z,26.27
2022-11-17T22:04:02.191Z,37.83
2022-11-17T22:06:29.552Z,38.03
2022-11-17T22:08:58.530Z,42.60
2022-11-17T22:11:38.353Z,35.13
2022-11-17T22:14:15.569Z,36.27
2022-11-17T22:16:53.626Z,31.10
2022-11-17T22:19:22.903Z,29.53
2022-11-17T22:21:52.671Z,26.60
2022-11-17T22:24:20.406Z,25.53
2022-11-17T22:26:47.666Z,30.30
2022-11-17T22:29:18.768Z,24.67
2022-11-17T22:31:48.560Z,33.87
2022-11-17T22:34:16.260Z,29.40
2022-11-17T22:36:43.221Z,30.10
2022-11-17T22:39:10.252Z,31.00
2022-11-17T22:41:37.212Z,35.47
2022-11-17T22:44:04.450Z,33.70
2022-11-17T22:46:31.484Z,37.57
2022-11-17T22:48:58.696Z,39.80
2022-11-17T22:51:44.306Z,44.37
2022-11-17T22:54:11.244Z,42.80
2022-11-17T22:56:38.217Z,41.40
2022-11-17T22:59:05.271Z,37.27
2022-11-17T23:01:32.515Z,40.60
2022-11-17T23:03:59.776Z,38.90
2022-11-17T23:06:29.988Z,40.50
2022-11-17T23:08:58.311Z,36.17
2022-11-17T23:11:37.658Z,34.17
2022-11-17T23:14:12.924Z,33.57
2022-11-17T23:16:40.910Z,32.60
2022-11-17T23:19:11.740Z,34.87
2022-11-17T23:21:38.645Z,34.07
2022-11-17T23:24:06.030Z,36.73
2022-11-17T23:26:32.941Z,29.30
2022-11-17T23:28:59.898Z,30.87
2022-11-17T23:31:27.986Z,30.80
2022-11-17T23:33:54.969Z,30.93
2022-11-17T23:36:22.947Z,26.90
2022-11-17T23:38:50.916Z,32.13
2022-11-17T23:41:20.418Z,28.47
2022-11-17T23:43:50.991Z,27.77
2022-11-17T23:46:21.186Z,26.87
2022-11-17T23:48:48.489Z,27.90
2022-11-17T23:51:18.829Z,28.33
2022-11-17T23:53:55.406Z,28.70
2022-11-17T23:56:23.100Z,31.03
2022-11-17T23:58:51.160Z,28.83
